Time;durP1;ratioP1;P1;durP2;ratioP2;P2;SDS_P1;SDS_P2;PMS_P1;PMS_P2;Temp;Humidity;BMP_temperature;BMP_pressure;BME280_temperature;BME280_humidity;BME280_pressure;Samples;Min_cycle;Max_cycle;Signal;HPM_P1;HPM_P2
2021/08/07 00:00:20;;;;;;;6.15;2.70;;;16.90;99.90;;;;;;4995088;28;20030;-76
2021/08/07 00:02:46;;;;;;;9.55;2.95;;;16.90;99.90;;;;;;4985902;28;20027;-77
2021/08/07 00:05:11;;;;;;;6.57;2.67;;;16.90;99.90;;;;;;4990116;28;20037;-77
2021/08/07 00:07:40;;;;;;;6.00;2.95;;;16.90;99.90;;;;;;4994200;28;20057;-76
2021/08/07 00:10:07;;;;;;;8.95;3.13;;;16.90;99.90;;;;;;4994356;28;20062;-76
2021/08/07 00:12:34;;;;;;;7.55;2.72;;;16.80;99.90;;;;;;4994909;28;20107;-76
2021/08/07 00:15:00;;;;;;;8.23;3.17;;;16.80;99.90;;;;;;4992924;28;20113;-77
2021/08/07 00:17:25;;;;;;;9.52;3.58;;;16.80;99.90;;;;;;4994754;28;20122;-76
2021/08/07 00:19:51;;;;;;;6.68;2.65;;;16.80;99.90;;;;;;4994131;28;20192;-78
2021/08/07 00:22:17;;;;;;;10.32;2.83;;;16.70;99.90;;;;;;4993962;28;20030;-77
2021/08/07 00:24:42;;;;;;;4.45;2.70;;;16.70;99.90;;;;;;4994704;28;20109;-77
2021/08/07 00:27:08;;;;;;;6.63;2.15;;;16.70;99.90;;;;;;4994403;28;20023;-77
2021/08/07 00:29:37;;;;;;;7.93;3.03;;;16.70;99.90;;;;;;4993515;28;20062;-77
2021/08/07 00:32:05;;;;;;;6.75;2.40;;;16.70;99.90;;;;;;4994022;28;20033;-75
2021/08/07 00:34:31;;;;;;;5.95;2.42;;;16.70;99.90;;;;;;4994401;28;20039;-76
2021/08/07 00:36:56;;;;;;;7.72;2.78;;;16.70;99.90;;;;;;4993205;28;20022;-76
2021/08/07 00:39:22;;;;;;;11.82;2.15;;;16.70;99.90;;;;;;4994669;28;20157;-77
2021/08/07 00:41:48;;;;;;;5.88;2.20;;;16.70;99.90;;;;;;4993810;28;20018;-76
2021/08/07 00:44:13;;;;;;;8.48;2.78;;;16.60;99.90;;;;;;4993206;28;20030;-77
2021/08/07 00:46:39;;;;;;;7.53;2.53;;;16.60;99.90;;;;;;4994069;28;20030;-76
2021/08/07 00:49:05;;;;;;;5.07;2.53;;;16.60;99.90;;;;;;4993647;28;20482;-77
2021/08/07 00:51:31;;;;;;;10.73;2.90;;;16.60;99.90;;;;;;4993273;28;20030;-77
2021/08/07 00:53:59;;;;;;;7.18;2.35;;;16.60;99.90;;;;;;4993124;28;20018;-76
2021/08/07 00:56:24;;;;;;;10.07;2.70;;;16.50;99.90;;;;;;4993998;28;20081;-76
2021/08/07 00:58:50;;;;;;;9.77;2.70;;;16.40;99.90;;;;;;4992571;28;20374;-77
2021/08/07 01:01:17;;;;;;;11.45;2.95;;;16.40;99.90;;;;;;4993365;28;20046;-76
2021/08/07 01:03:48;;;;;;;11.73;2.55;;;16.40;99.90;;;;;;4992220;28;20050;-75
2021/08/07 01:06:33;;;;;;;9.07;2.65;;;16.40;99.90;;;;;;4992743;28;20490;-78
2021/08/07 01:09:18;;;;;;;5.88;2.55;;;16.30;99.90;;;;;;4989542;28;20546;-75
2021/08/07 01:11:52;;;;;;;7.43;2.38;;;16.30;99.90;;;;;;4992076;28;20478;-76
2021/08/07 01:14:22;;;;;;;10.85;2.80;;;16.20;99.90;;;;;;4992818;28;20113;-76
2021/08/07 01:16:49;;;;;;;8.63;2.55;;;16.20;99.90;;;;;;4993061;28;20390;-76
2021/08/07 01:19:17;;;;;;;10.25;2.50;;;16.20;99.90;;;;;;4992348;28;20402;-76
2021/08/07 01:21:49;;;;;;;14.10;3.05;;;16.10;99.90;;;;;;4993390;28;20549;-78
2021/08/07 01:24:49;;;;;;;6.28;2.47;;;16.10;99.90;;;;;;4980344;28;20035;-76
2021/08/07 01:27:32;;;;;;;5.20;2.42;;;16.00;99.90;;;;;;4993771;28;20022;-76
2021/08/07 01:29:59;;;;;;;5.63;2.85;;;16.00;99.90;;;;;;4980297;28;20066;-77
2021/08/07 01:32:31;;;;;;;14.05;2.88;;;16.00;99.90;;;;;;4992658;28;20037;-77
2021/08/07 01:34:58;;;;;;;13.13;3.50;;;15.90;99.90;;;;;;4992573;28;20026;-76
2021/08/07 01:37:24;;;;;;;8.23;2.85;;;15.90;99.90;;;;;;4993061;28;20022;-77
2021/08/07 01:39:54;;;;;;;12.80;2.35;;;15.90;99.90;;;;;;4992196;28;20041;-76
2021/08/07 01:42:20;;;;;;;12.60;2.50;;;15.80;99.90;;;;;;4993375;28;20026;-77
2021/08/07 01:44:46;;;;;;;11.52;3.20;;;15.80;99.90;;;;;;4992918;28;20206;-77
2021/08/07 01:47:53;;;;;;;9.25;2.70;;;15.80;99.90;;;;;;4992417;28;20540;-76
2021/08/07 01:50:28;;;;;;;7.50;2.95;;;15.70;99.90;;;;;;4994166;28;20038;-76
2021/08/07 01:52:59;;;;;;;11.73;3.13;;;15.70;99.90;;;;;;4993069;28;20022;-77
2021/08/07 01:55:44;;;;;;;10.02;3.42;;;15.60;99.90;;;;;;4993413;28;20104;-76
2021/08/07 01:58:17;;;;;;;9.75;3.28;;;15.60;99.90;;;;;;4992742;28;20057;-77
2021/08/07 02:00:44;;;;;;;8.35;3.17;;;16.60;99.90;;;;;;4992214;28;20595;-78
2021/08/07 02:03:12;;;;;;;10.65;3.65;;;15.50;99.90;;;;;;4992971;28;20046;-76
2021/08/07 02:05:38;;;;;;;9.15;3.40;;;15.50;99.90;;;;;;4992892;28;20018;-76
2021/08/07 02:08:07;;;;;;;7.68;3.05;;;15.50;99.90;;;;;;4992570;28;20109;-76
2021/08/07 02:10:33;;;;;;;6.72;2.90;;;15.40;99.90;;;;;;4992555;28;20093;-77
2021/08/07 02:13:00;;;;;;;4.28;3.42;;;15.40;99.90;;;;;;4992593;28;20042;-77
2021/08/07 02:15:26;;;;;;;9.57;4.28;;;15.30;99.90;;;;;;4992014;28;20076;-77
2021/08/07 02:17:53;;;;;;;10.25;3.83;;;15.30;99.90;;;;;;4983777;28;20047;-76
2021/08/07 02:20:20;;;;;;;7.13;3.72;;;15.30;99.90;;;;;;4988230;28;20160;-78
2021/08/07 02:22:49;;;;;;;10.38;3.47;;;15.30;99.90;;;;;;4991590;28;20047;-77
2021/08/07 02:25:14;;;;;;;6.78;3.75;;;15.30;99.90;;;;;;4987276;28;20029;-77
2021/08/07 02:27:40;;;;;;;6.78;4.15;;;15.20;99.90;;;;;;4996778;28;20449;-77
2021/08/07 02:30:08;;;;;;;11.18;4.38;;;15.30;99.90;;;;;;4995794;28;20867;-77
2021/08/07 02:32:36;;;;;;;11.52;3.97;;;15.30;99.90;;;;;;4996467;28;20093;-77
2021/08/07 02:35:05;;;;;;;9.32;3.83;;;15.30;99.90;;;;;;4995651;28;20026;-76
2021/08/07 02:37:31;;;;;;;8.57;4.00;;;15.40;99.90;;;;;;4996445;28;20080;-78
2021/08/07 02:39:58;;;;;;;8.38;4.03;;;15.40;99.90;;;;;;4996418;28;20033;-77
2021/08/07 02:42:24;;;;;;;6.90;4.05;;;15.40;99.90;;;;;;4996306;28;20111;-77
2021/08/07 02:44:50;;;;;;;8.32;4.15;;;15.40;99.90;;;;;;4996136;28;20034;-78
2021/08/07 02:47:16;;;;;;;6.90;4.30;;;15.40;99.90;;;;;;4996562;28;20023;-75
2021/08/07 02:49:41;;;;;;;11.75;4.40;;;15.50;99.90;;;;;;4995967;28;20042;-76
2021/08/07 02:52:07;;;;;;;8.27;4.15;;;15.50;99.90;;;;;;4996133;28;20093;-76
2021/08/07 02:54:34;;;;;;;10.82;4.88;;;15.50;99.90;;;;;;4996335;28;20089;-78
2021/08/07 02:57:02;;;;;;;8.50;4.97;;;15.50;99.90;;;;;;4995963;28;20023;-77
2021/08/07 02:59:28;;;;;;;7.28;4.25;;;15.50;99.90;;;;;;4996811;28;20116;-76
2021/08/07 03:01:54;;;;;;;15.00;5.65;;;15.60;99.90;;;;;;4995999;28;20471;-76
2021/08/07 03:04:19;;;;;;;8.02;4.35;;;15.60;99.90;;;;;;4996113;28;20470;-78
2021/08/07 03:06:45;;;;;;;8.55;4.15;;;15.70;99.90;;;;;;4995833;28;20030;-77
2021/08/07 03:09:10;;;;;;;12.32;4.28;;;15.70;99.90;;;;;;4996096;28;20018;-77
2021/08/07 03:11:36;;;;;;;7.07;4.35;;;15.70;99.90;;;;;;4995706;28;20030;-78
2021/08/07 03:14:02;;;;;;;7.30;4.40;;;15.70;99.90;;;;;;4995979;28;20098;-77
2021/08/07 03:16:28;;;;;;;11.82;4.50;;;15.70;99.90;;;;;;4996142;28;20552;-77
2021/08/07 03:18:54;;;;;;;6.75;4.65;;;15.70;99.90;;;;;;4994778;28;20019;-76
2021/08/07 03:21:19;;;;;;;19.10;4.28;;;15.70;99.90;;;;;;4995548;28;20125;-78
2021/08/07 03:23:45;;;;;;;6.25;4.32;;;15.80;99.90;;;;;;4983854;28;20030;-76
2021/08/07 03:26:11;;;;;;;8.00;4.35;;;15.80;99.90;;;;;;4992899;28;20042;-76
2021/08/07 03:28:37;;;;;;;10.88;4.70;;;15.80;99.90;;;;;;4995737;28;20026;-76
2021/08/07 03:31:03;;;;;;;11.57;4.72;;;15.90;99.90;;;;;;4995341;28;20483;-77
2021/08/07 03:33:29;;;;;;;9.82;4.63;;;15.80;99.90;;;;;;4994899;28;20058;-77
2021/08/07 03:35:54;;;;;;;9.07;4.18;;;15.80;99.90;;;;;;4995099;28;20085;-77
2021/08/07 03:38:20;;;;;;;8.13;4.30;;;15.90;99.90;;;;;;4994514;28;20057;-77
2021/08/07 03:40:45;;;;;;;8.90;4.60;;;15.90;99.90;;;;;;4995465;28;20505;-76
2021/08/07 03:43:12;;;;;;;11.15;5.10;;;15.90;99.90;;;;;;4995462;28;20485;-76
2021/08/07 03:45:38;;;;;;;11.52;4.22;;;15.90;99.90;;;;;;4994888;28;20192;-76
2021/08/07 03:48:04;;;;;;;6.43;4.18;;;15.90;99.90;;;;;;4995010;28;20109;-77
2021/08/07 03:50:29;;;;;;;6.60;4.88;;;15.90;99.90;;;;;;4995085;28;20041;-77
2021/08/07 03:52:55;;;;;;;10.60;4.25;;;15.90;99.90;;;;;;4994234;28;20137;-77
2021/08/07 03:55:20;;;;;;;7.18;4.18;;;15.90;99.90;;;;;;4994740;28;20037;-76
2021/08/07 03:57:50;;;;;;;9.57;3.97;;;16.00;99.90;;;;;;4994934;28;20039;-76
2021/08/07 04:00:17;;;;;;;7.53;4.00;;;16.00;99.90;;;;;;4994201;28;20505;-77
2021/08/07 04:02:43;;;;;;;11.02;3.60;;;15.90;99.90;;;;;;4994982;28;20265;-77
2021/08/07 04:05:09;;;;;;;15.38;4.15;;;15.90;99.90;;;;;;4994697;28;20026;-77
2021/08/07 04:07:34;;;;;;;8.90;3.97;;;15.90;99.90;;;;;;4994423;28;20387;-76
2021/08/07 04:10:00;;;;;;;11.45;3.70;;;15.90;99.90;;;;;;4994478;28;20030;-76
2021/08/07 04:12:25;;;;;;;5.18;3.00;;;15.70;99.90;;;;;;4994729;28;20117;-76
2021/08/07 04:14:52;;;;;;;17.85;4.93;;;15.80;99.90;;;;;;4993870;28;20033;-77
2021/08/07 04:17:17;;;;;;;8.30;3.60;;;15.70;99.90;;;;;;4994486;28;20023;-76
2021/08/07 04:19:43;;;;;;;11.85;3.78;;;15.60;99.90;;;;;;4994376;28;20827;-76
2021/08/07 04:22:08;;;;;;;8.15;3.53;;;15.60;99.90;;;;;;4994050;28;20034;-75
2021/08/07 04:24:34;;;;;;;9.02;3.38;;;15.60;99.90;;;;;;4980646;28;20026;-78
2021/08/07 04:27:00;;;;;;;8.23;3.42;;;15.50;99.90;;;;;;4994173;28;20026;-77
2021/08/07 04:29:25;;;;;;;10.07;3.78;;;15.50;99.90;;;;;;4993718;28;20070;-76
2021/08/07 04:31:51;;;;;;;7.82;3.53;;;15.50;99.90;;;;;;4994082;28;20030;-77
2021/08/07 04:34:16;;;;;;;7.05;3.67;;;15.50;99.90;;;;;;4993938;28;20023;-77
2021/08/07 04:36:42;;;;;;;8.13;3.65;;;15.50;99.90;;;;;;4993646;28;20123;-77
2021/08/07 04:39:07;;;;;;;10.30;3.80;;;15.50;99.90;;;;;;4994062;28;20169;-77
2021/08/07 04:41:33;;;;;;;10.32;3.90;;;15.50;99.90;;;;;;4994320;28;20046;-77
2021/08/07 04:44:02;;;;;;;8.70;3.78;;;15.50;99.90;;;;;;4992880;28;20027;-77
2021/08/07 04:46:29;;;;;;;5.68;3.30;;;15.50;99.90;;;;;;4993915;28;20034;-77
2021/08/07 04:48:54;;;;;;;11.23;4.20;;;15.50;99.90;;;;;;4993216;28;20023;-76
2021/08/07 04:51:20;;;;;;;5.32;3.50;;;15.50;99.90;;;;;;4994633;28;20038;-76
2021/08/07 04:53:45;;;;;;;11.85;4.28;;;15.50;99.90;;;;;;4993768;28;20030;-76
2021/08/07 04:56:11;;;;;;;5.50;3.63;;;15.50;99.90;;;;;;4993216;28;20037;-77
2021/08/07 04:58:37;;;;;;;6.32;3.40;;;15.50;99.90;;;;;;4993537;28;20105;-76
2021/08/07 05:01:02;;;;;;;9.80;4.00;;;15.50;99.90;;;;;;4993687;28;20375;-77
2021/08/07 05:03:28;;;;;;;5.45;3.45;;;15.50;99.90;;;;;;4992949;28;20031;-76
2021/08/07 05:05:53;;;;;;;10.50;4.13;;;15.50;99.90;;;;;;4993521;28;20501;-77
2021/08/07 05:08:19;;;;;;;9.20;3.78;;;15.60;99.90;;;;;;4993940;28;20029;-77
2021/08/07 05:10:44;;;;;;;6.88;3.28;;;15.60;99.90;;;;;;4992911;28;20383;-77
2021/08/07 05:13:10;;;;;;;6.07;3.22;;;15.60;99.90;;;;;;4993716;28;20026;-76
2021/08/07 05:15:35;;;;;;;8.88;3.45;;;15.70;99.90;;;;;;4993469;28;20041;-76
2021/08/07 05:18:04;;;;;;;11.27;3.97;;;15.70;99.90;;;;;;4992688;28;20128;-76
2021/08/07 05:20:29;;;;;;;7.53;3.20;;;15.80;99.90;;;;;;4992914;28;20092;-77
2021/08/07 05:22:55;;;;;;;7.30;3.60;;;15.80;99.90;;;;;;4988098;28;20055;-75
2021/08/07 05:25:20;;;;;;;7.80;3.38;;;15.90;99.90;;;;;;4983913;28;20041;-76
2021/08/07 05:27:46;;;;;;;7.35;4.18;;;15.90;99.90;;;;;;4992993;28;20029;-76
2021/08/07 05:30:12;;;;;;;5.55;3.65;;;15.80;99.90;;;;;;4986921;28;20030;-74
2021/08/07 05:32:37;;;;;;;9.75;3.70;;;15.90;99.90;;;;;;4990194;28;20501;-76
2021/08/07 05:35:04;;;;;;;11.57;3.22;;;15.90;99.90;;;;;;4991744;28;20030;-76
2021/08/07 05:37:30;;;;;;;7.95;3.28;;;15.90;99.90;;;;;;4991071;28;20026;-75
2021/08/07 05:39:58;;;;;;;9.55;3.20;;;15.90;99.90;;;;;;4990387;28;20027;-76
2021/08/07 05:42:23;;;;;;;4.57;3.17;;;16.00;99.90;;;;;;4978289;28;20097;-76
2021/08/07 05:44:49;;;;;;;7.13;3.28;;;16.00;99.90;;;;;;4977093;28;20074;-76
2021/08/07 05:47:15;;;;;;;7.75;3.22;;;16.10;99.90;;;;;;4973284;28;20018;-77
2021/08/07 05:49:40;;;;;;;7.13;3.10;;;16.20;99.90;;;;;;4975367;28;20027;-77
2021/08/07 05:52:06;;;;;;;9.60;2.85;;;16.30;99.90;;;;;;4973389;28;20045;-77
2021/08/07 05:54:32;;;;;;;5.90;2.78;;;16.40;99.90;;;;;;4974314;28;20018;-77
2021/08/07 05:56:57;;;;;;;4.25;2.45;;;16.50;99.90;;;;;;4973041;28;20023;-76
2021/08/07 05:59:23;;;;;;;4.55;2.67;;;16.70;99.90;;;;;;4972498;28;20026;-76
2021/08/07 06:01:48;;;;;;;6.50;2.47;;;16.80;99.90;;;;;;4977589;28;20036;-76
2021/08/07 06:04:14;;;;;;;9.38;2.72;;;16.90;99.90;;;;;;4985797;28;20037;-76
2021/08/07 06:06:39;;;;;;;8.88;2.90;;;16.90;99.90;;;;;;4981240;28;20057;-75
2021/08/07 06:09:05;;;;;;;4.15;1.75;;;17.00;99.90;;;;;;4987489;28;20019;-77
2021/08/07 06:11:30;;;;;;;6.55;2.10;;;17.00;99.90;;;;;;4985536;28;20037;-77
2021/08/07 06:13:56;;;;;;;7.50;1.98;;;16.90;99.90;;;;;;4978277;28;20018;-76
2021/08/07 06:16:22;;;;;;;3.30;2.05;;;16.90;99.90;;;;;;4987054;28;20029;-77
2021/08/07 06:18:47;;;;;;;3.78;2.25;;;16.90;99.90;;;;;;4983796;28;20096;-79
2021/08/07 06:21:13;;;;;;;8.10;2.33;;;16.90;99.90;;;;;;4988667;28;20058;-78
2021/08/07 06:23:38;;;;;;;4.97;1.60;;;16.90;99.90;;;;;;4981311;28;20031;-76
2021/08/07 06:26:04;;;;;;;5.35;2.00;;;16.90;99.90;;;;;;4979486;28;20034;-77
2021/08/07 06:28:29;;;;;;;6.45;2.08;;;17.00;99.90;;;;;;4981048;28;20026;-77
2021/08/07 06:30:55;;;;;;;5.22;2.13;;;17.00;99.90;;;;;;4991602;28;20057;-77
2021/08/07 06:33:20;;;;;;;3.03;1.73;;;17.10;99.90;;;;;;4990526;28;20011;-77
2021/08/07 06:35:46;;;;;;;3.65;1.70;;;17.10;99.90;;;;;;4990441;28;20040;-76
2021/08/07 06:38:11;;;;;;;3.47;1.63;;;17.20;99.90;;;;;;4992101;28;20023;-78
2021/08/07 06:40:37;;;;;;;2.28;1.40;;;17.20;99.90;;;;;;4992409;28;20031;-77
2021/08/07 06:43:03;;;;;;;5.10;1.80;;;17.30;99.90;;;;;;4991327;28;20026;-77
2021/08/07 06:45:29;;;;;;;6.75;2.30;;;17.30;99.90;;;;;;4992129;28;20030;-76
2021/08/07 06:47:54;;;;;;;2.85;1.48;;;17.40;99.90;;;;;;4991870;28;20109;-78
2021/08/07 06:50:20;;;;;;;4.15;1.73;;;17.40;99.90;;;;;;4991394;28;20077;-77
2021/08/07 06:52:45;;;;;;;6.93;1.80;;;17.50;99.90;;;;;;4992130;28;20031;-77
2021/08/07 06:55:11;;;;;;;3.53;1.67;;;17.70;99.90;;;;;;4993183;28;20023;-77
2021/08/07 06:57:40;;;;;;;4.63;1.65;;;17.90;99.90;;;;;;4992184;28;20117;-78
2021/08/07 07:00:09;;;;;;;5.05;1.55;;;18.00;99.90;;;;;;4992137;28;20378;-78
2021/08/07 07:02:35;;;;;;;4.95;2.05;;;18.10;99.90;;;;;;4992033;28;20030;-78
2021/08/07 07:05:01;;;;;;;5.13;1.70;;;18.10;99.90;;;;;;4992308;28;20388;-77
2021/08/07 07:07:26;;;;;;;3.75;1.63;;;18.10;99.90;;;;;;4992948;28;20022;-78
2021/08/07 07:09:52;;;;;;;5.72;1.40;;;18.20;99.90;;;;;;4995032;28;20854;-78
2021/08/07 07:12:17;;;;;;;3.92;1.50;;;18.30;99.90;;;;;;4995780;28;20443;-77
2021/08/07 07:14:43;;;;;;;3.30;1.23;;;18.30;99.90;;;;;;4996468;28;20064;-78
2021/08/07 07:17:09;;;;;;;3.58;1.42;;;18.40;99.90;;;;;;4996297;28;20378;-77
2021/08/07 07:19:37;;;;;;;5.28;1.58;;;18.50;99.90;;;;;;4995773;28;20098;-78
2021/08/07 07:22:03;;;;;;;6.35;1.45;;;18.60;99.90;;;;;;4995372;28;20434;-77
2021/08/07 07:24:29;;;;;;;8.63;1.90;;;18.70;99.90;;;;;;4981110;28;20117;-78
2021/08/07 07:26:55;;;;;;;2.80;1.33;;;18.80;99.90;;;;;;4995237;28;20105;-78
2021/08/07 07:29:20;;;;;;;2.53;1.30;;;18.80;99.90;;;;;;4996190;28;20027;-80
2021/08/07 07:31:46;;;;;;;6.40;2.00;;;18.70;99.90;;;;;;4980234;28;20913;-81
2021/08/07 07:34:11;;;;;;;6.90;1.67;;;18.80;99.90;;;;;;4995047;28;20032;-81
2021/08/07 07:36:37;;;;;;;4.35;1.42;;;18.70;99.90;;;;;;4998905;28;20070;-81
2021/08/07 07:39:03;;;;;;;6.07;1.65;;;18.70;99.90;;;;;;4998852;28;20022;-81
2021/08/07 07:41:29;;;;;;;4.65;1.83;;;18.70;99.90;;;;;;4987564;28;20045;-81
2021/08/07 07:43:54;;;;;;;4.95;1.58;;;18.60;99.90;;;;;;4994972;28;20474;-82
2021/08/07 07:46:20;;;;;;;3.30;1.55;;;18.60;99.90;;;;;;4989591;28;20022;-82
2021/08/07 07:48:45;;;;;;;4.53;1.65;;;18.60;99.90;;;;;;4992031;28;20041;-81
2021/08/07 07:51:11;;;;;;;4.82;1.73;;;18.60;99.90;;;;;;4997491;28;20037;-81
2021/08/07 07:53:36;;;;;;;3.33;1.80;;;18.60;99.90;;;;;;4982587;28;20601;-81
2021/08/07 07:56:03;;;;;;;4.20;1.77;;;18.60;99.90;;;;;;4997104;28;20026;-82
2021/08/07 07:58:28;;;;;;;3.20;1.45;;;18.70;99.90;;;;;;4996278;28;20097;-80
2021/08/07 08:00:54;;;;;;;6.32;2.00;;;18.80;99.90;;;;;;4997219;28;20371;-78
2021/08/07 08:03:20;;;;;;;4.63;1.67;;;18.80;99.90;;;;;;4995261;28;20014;-80
2021/08/07 08:05:45;;;;;;;2.95;1.50;;;19.00;99.90;;;;;;4994704;28;20022;-79
2021/08/07 08:08:11;;;;;;;6.63;1.67;;;19.10;99.90;;;;;;4995117;28;20023;-80
2021/08/07 08:10:38;;;;;;;3.83;1.58;;;19.10;99.90;;;;;;4995124;28;20482;-79
2021/08/07 08:13:05;;;;;;;2.00;1.48;;;19.20;99.90;;;;;;4994321;28;20030;-81
2021/08/07 08:15:30;;;;;;;6.63;2.03;;;19.30;99.90;;;;;;4994873;28;20022;-81
2021/08/07 08:17:56;;;;;;;4.40;2.15;;;19.50;99.90;;;;;;4994768;28;20030;-81
2021/08/07 08:20:22;;;;;;;4.55;1.65;;;19.60;99.90;;;;;;4993177;28;20393;-82
2021/08/07 08:22:48;;;;;;;2.92;1.25;;;19.70;99.90;;;;;;4990931;28;20051;-80
2021/08/07 08:25:13;;;;;;;5.80;2.38;;;19.80;99.90;;;;;;4984904;28;20478;-81
2021/08/07 08:27:40;;;;;;;6.18;1.60;;;20.00;99.90;;;;;;4988274;28;20033;-81
2021/08/07 08:30:07;;;;;;;7.35;1.50;;;20.10;99.90;;;;;;5008830;28;20066;-81
2021/08/07 08:32:33;;;;;;;4.82;1.67;;;20.20;99.90;;;;;;4998455;28;20056;-81
2021/08/07 08:34:58;;;;;;;8.13;1.80;;;20.30;99.90;;;;;;4993658;28;20053;-79
2021/08/07 08:37:24;;;;;;;3.78;1.55;;;20.30;99.90;;;;;;4994664;28;20018;-81
2021/08/07 08:39:51;;;;;;;4.15;1.55;;;20.30;99.90;;;;;;4993650;28;20033;-80
2021/08/07 08:42:17;;;;;;;4.10;1.65;;;20.40;99.90;;;;;;4997357;28;20043;-79
2021/08/07 08:44:43;;;;;;;4.88;1.80;;;20.40;99.90;;;;;;4993215;28;20037;-79
2021/08/07 08:47:13;;;;;;;2.35;1.30;;;20.50;99.90;;;;;;4994121;28;20030;-79
2021/08/07 08:49:39;;;;;;;1.95;1.02;;;20.60;99.90;;;;;;5006473;28;20054;-81
2021/08/07 08:52:06;;;;;;;4.28;1.40;;;20.60;99.90;;;;;;4993619;28;20497;-81
2021/08/07 08:54:32;;;;;;;3.88;1.35;;;20.70;99.90;;;;;;4995340;28;20036;-80
2021/08/07 08:56:57;;;;;;;4.93;1.98;;;20.80;99.90;;;;;;4993355;28;20014;-81
2021/08/07 08:59:24;;;;;;;2.80;1.35;;;20.90;99.90;;;;;;5007162;28;20026;-78
2021/08/07 09:01:51;;;;;;;4.05;1.50;;;20.90;99.90;;;;;;4974036;28;20027;-79
2021/08/07 09:04:16;;;;;;;3.40;1.10;;;20.90;99.90;;;;;;4986336;28;20087;-75
2021/08/07 09:06:42;;;;;;;4.07;1.50;;;20.80;99.90;;;;;;4992521;28;20057;-80
2021/08/07 09:09:10;;;;;;;5.35;1.40;;;20.80;99.90;;;;;;4992426;28;20022;-80
2021/08/07 09:11:38;;;;;;;4.43;1.25;;;20.80;99.90;;;;;;4995916;28;20109;-80
2021/08/07 09:14:29;;;;;;;3.25;1.50;;;20.90;99.90;;;;;;4994041;28;20474;-80
2021/08/07 09:16:57;;;;;;;3.65;1.05;;;20.90;99.90;;;;;;4992434;28;20449;-80
2021/08/07 09:19:27;;;;;;;12.13;2.17;;;21.00;99.90;;;;;;4993532;28;20023;-80
2021/08/07 09:22:17;;;;;;;4.63;1.88;;;21.00;99.90;;;;;;4992984;28;20026;-80
2021/08/07 09:25:07;;;;;;;2.80;1.45;;;21.00;99.90;;;;;;4989762;28;20030;-79
2021/08/07 09:27:34;;;;;;;;;;;21.00;99.90;;;;;;4983304;28;20134;-80
2021/08/07 09:30:24;;;;;;;5.95;2.15;;;21.00;99.90;;;;;;4981147;28;19973;-80
2021/08/07 09:33:19;;;;;;;5.18;1.90;;;20.90;99.90;;;;;;4981526;28;20029;-79
2021/08/07 09:35:45;;;;;;;4.57;2.40;;;20.90;99.90;;;;;;4983485;28;20021;-80
2021/08/07 09:38:19;;;;;;;3.63;2.25;;;20.80;99.90;;;;;;4981937;28;20439;-80
2021/08/07 09:40:51;;;;;;;9.10;2.30;;;20.80;99.90;;;;;;4983217;28;20041;-80
2021/08/07 09:43:25;;;;;;;8.98;2.40;;;20.70;99.90;;;;;;4984469;28;20113;-81
2021/08/07 09:46:12;;;;;;;5.18;2.50;;;20.60;99.90;;;;;;4983789;28;20065;-81
2021/08/07 09:48:41;;;;;;;4.57;2.30;;;20.60;99.90;;;;;;4980907;28;20035;-80
2021/08/07 09:51:20;;;;;;;4.07;2.33;;;20.50;99.90;;;;;;4983046;28;20034;-81
2021/08/07 09:54:05;;;;;;;7.40;2.63;;;20.40;99.90;;;;;;4977305;28;20116;-81
2021/08/07 09:56:52;;;;;;;4.22;2.20;;;20.40;99.90;;;;;;4986141;28;20034;-82
2021/08/07 09:59:20;;;;;;;5.53;2.90;;;20.40;99.90;;;;;;4983420;28;20030;-82
2021/08/07 10:01:48;;;;;;;5.82;2.10;;;20.30;99.90;;;;;;4978774;28;20031;-81
2021/08/07 10:04:15;;;;;;;6.50;3.40;;;20.30;99.90;;;;;;4979482;28;20033;-80
2021/08/07 10:06:43;;;;;;;5.13;2.90;;;20.40;99.90;;;;;;4981590;28;20117;-81
2021/08/07 10:09:09;;;;;;;4.53;2.95;;;20.40;99.90;;;;;;4998705;28;20050;-81
2021/08/07 10:11:38;;;;;;;3.85;3.35;;;20.50;99.90;;;;;;4995620;28;20030;-81
2021/08/07 10:14:04;;;;;;;6.28;2.60;;;20.90;99.90;;;;;;4997488;28;20779;-80
2021/08/07 10:16:32;;;;;;;3.00;1.92;;;21.10;99.90;;;;;;4983194;28;20030;-80
2021/08/07 10:18:59;;;;;;;4.47;1.80;;;21.30;99.90;;;;;;4980483;28;20030;-80
2021/08/07 10:21:25;;;;;;;4.13;1.80;;;21.60;99.90;;;;;;4978782;28;20090;-81
2021/08/07 10:23:53;;;;;;;4.90;1.98;;;21.80;99.90;;;;;;4975459;28;20026;-81
2021/08/07 10:26:20;;;;;;;4.88;1.48;;;22.00;99.90;;;;;;4975588;28;20026;-80
2021/08/07 10:28:48;;;;;;;5.45;1.73;;;22.00;99.90;;;;;;4975179;28;20046;-79
2021/08/07 10:31:18;;;;;;;7.47;1.80;;;22.00;99.90;;;;;;4981131;28;20061;-81
2021/08/07 10:33:46;;;;;;;2.33;1.50;;;22.10;99.90;;;;;;4977607;28;20085;-81
2021/08/07 10:36:13;;;;;;;4.18;2.10;;;22.20;99.90;;;;;;4980153;28;20041;-80
2021/08/07 10:38:40;;;;;;;4.22;2.00;;;22.30;99.90;;;;;;4975710;28;20050;-80
2021/08/07 10:41:07;;;;;;;4.78;1.58;;;22.40;99.90;;;;;;4977293;28;20102;-80
2021/08/07 10:43:35;;;;;;;5.38;1.92;;;22.60;99.90;;;;;;4982367;28;20022;-80
2021/08/07 10:46:04;;;;;;;4.53;2.08;;;22.70;99.90;;;;;;4983943;28;20036;-80
2021/08/07 10:48:47;;;;;;;7.97;1.55;;;22.90;99.90;;;;;;4978111;28;20069;-81
2021/08/07 10:51:24;;;;;;;7.40;1.88;;;22.90;99.90;;;;;;4981934;28;20118;-81
2021/08/07 10:53:51;;;;;;;4.00;1.70;;;22.90;99.90;;;;;;4978529;28;20085;-81
2021/08/07 10:56:28;;;;;;;5.78;1.48;;;22.80;99.90;;;;;;4986787;28;20093;-82
2021/08/07 10:58:55;;;;;;;4.60;2.03;;;22.70;99.90;;;;;;5001332;28;20035;-81
2021/08/07 11:01:24;;;;;;;5.43;1.48;;;22.70;99.90;;;;;;4995221;28;20026;-81
2021/08/07 11:04:03;;;;;;;9.25;1.95;;;22.60;99.90;;;;;;4984037;28;20030;-81
2021/08/07 11:06:48;;;;;;;5.28;1.52;;;22.60;99.90;;;;;;4982119;28;20097;-81
2021/08/07 11:09:25;;;;;;;3.08;1.48;;;22.50;99.90;;;;;;4993720;28;20027;-82
2021/08/07 11:12:14;;;;;;;7.63;1.50;;;22.40;99.90;;;;;;4995399;28;20026;-80
2021/08/07 11:14:42;;;;;;;2.25;1.02;;;22.40;99.90;;;;;;4992163;28;20046;-80
2021/08/07 11:17:07;;;;;;;3.03;1.15;;;22.30;99.90;;;;;;4994888;28;20057;-80
2021/08/07 11:20:00;;;;;;;4.70;1.20;;;22.50;99.90;;;;;;4996000;28;20490;-81
2021/08/07 11:22:32;;;;;;;7.63;1.58;;;22.50;99.90;;;;;;4995122;28;20041;-81
2021/08/07 11:25:05;;;;;;;5.57;1.40;;;22.50;99.90;;;;;;4983439;28;20033;-80
2021/08/07 11:27:52;;;;;;;1.95;1.30;;;22.60;99.90;;;;;;4995758;28;20034;-81
2021/08/07 11:30:31;;;;;;;4.43;1.20;;;22.70;99.90;;;;;;4995197;28;20042;-81
2021/08/07 11:33:00;;;;;;;2.55;1.25;;;22.70;99.80;;;;;;4995456;28;20027;-81
2021/08/07 11:35:31;;;;;;;9.10;1.80;;;22.90;99.60;;;;;;4995801;28;20026;-81
2021/08/07 11:38:09;;;;;;;3.53;1.58;;;23.00;98.80;;;;;;4995606;28;20398;-81
2021/08/07 11:40:56;;;;;;;3.45;1.33;;;23.10;98.50;;;;;;4996367;28;20030;-81
2021/08/07 11:43:37;;;;;;;4.90;1.30;;;23.30;98.50;;;;;;4995632;28;20510;-81
2021/08/07 11:46:04;;;;;;;2.15;1.08;;;23.30;97.60;;;;;;4995438;28;20084;-81
2021/08/07 11:48:36;;;;;;;3.58;1.25;;;23.40;97.50;;;;;;4995767;28;20113;-81
2021/08/07 11:51:05;;;;;;;3.55;1.58;;;23.20;97.00;;;;;;4995000;28;20482;-81
2021/08/07 11:53:32;;;;;;;3.45;1.17;;;23.10;97.30;;;;;;4994746;28;20467;-81
2021/08/07 11:56:00;;;;;;;4.28;1.40;;;23.20;97.40;;;;;;4994751;28;20062;-81
2021/08/07 11:58:26;;;;;;;2.85;0.90;;;23.30;97.60;;;;;;4994795;28;20462;-81
2021/08/07 12:00:58;;;;;;;2.83;1.20;;;23.30;96.30;;;;;;4995196;28;20030;-82
2021/08/07 12:03:24;;;;;;;12.73;1.50;;;23.40;96.40;;;;;;4981748;28;20027;-81
2021/08/07 12:05:57;;;;;;;2.47;0.93;;;23.30;96.30;;;;;;4994536;28;20085;-81
2021/08/07 12:08:31;;;;;;;10.35;1.30;;;23.30;96.50;;;;;;4995521;28;20022;-81
2021/08/07 12:11:00;;;;;;;2.88;1.00;;;23.40;96.40;;;;;;4995275;28;20113;-79
2021/08/07 12:13:36;;;;;;;2.92;0.98;;;23.60;95.90;;;;;;4994865;28;20030;-80
2021/08/07 12:16:04;;;;;;;2.92;1.10;;;23.60;95.40;;;;;;4995201;28;20089;-80
2021/08/07 12:18:43;;;;;;;2.40;1.20;;;23.70;95.10;;;;;;4995089;28;20022;-81
2021/08/07 12:21:31;;;;;;;4.57;1.30;;;24.00;95.60;;;;;;4991709;28;20043;-80
2021/08/07 12:24:10;;;;;;;1.98;0.90;;;24.20;94.70;;;;;;4981980;28;20041;-81
2021/08/07 12:26:47;;;;;;;3.00;1.20;;;24.30;93.80;;;;;;4980734;28;20037;-79
2021/08/07 12:29:23;;;;;;;7.38;1.30;;;24.20;93.90;;;;;;4996082;28;20022;-81
2021/08/07 12:32:00;;;;;;;10.35;1.65;;;24.00;93.80;;;;;;4995838;28;20042;-80
2021/08/07 12:34:35;;;;;;;2.25;1.00;;;23.90;94.00;;;;;;4995109;28;20471;-79
2021/08/07 12:37:09;;;;;;;7.45;1.10;;;23.80;94.00;;;;;;4995846;28;20070;-81
2021/08/07 12:39:43;;;;;;;5.80;1.13;;;23.60;93.40;;;;;;4995708;28;20030;-81
2021/08/07 12:42:12;;;;;;;5.22;1.45;;;23.50;93.30;;;;;;4994668;28;20029;-79
2021/08/07 12:44:38;;;;;;;1.42;1.15;;;23.30;93.70;;;;;;4994956;28;20038;-80
2021/08/07 12:47:04;;;;;;;3.65;1.20;;;23.00;94.20;;;;;;4993664;28;20418;-79
2021/08/07 12:49:37;;;;;;;2.80;1.17;;;22.80;95.00;;;;;;4994705;28;20018;-79
2021/08/07 12:52:06;;;;;;;2.90;1.20;;;22.50;95.90;;;;;;4981549;28;20044;-80